sensor_id;sensor_type;location;lat;lon;timestamp;temperature;humidity
75994;DHT22;64680;53.800;9.988;2022-12-07T00:01:08;1.60;96.70
75994;DHT22;64680;53.800;9.988;2022-12-07T00:03:35;1.70;97.60
75994;DHT22;64680;53.800;9.988;2022-12-07T00:06:01;1.70;96.40
75994;DHT22;64680;53.800;9.988;2022-12-07T00:08:27;1.80;96.40
75994;DHT22;64680;53.800;9.988;2022-12-07T00:10:53;1.90;96.60
75994;DHT22;64680;53.800;9.988;2022-12-07T00:13:19;1.90;96.50
75994;DHT22;64680;53.800;9.988;2022-12-07T00:15:44;2.00;96.50
75994;DHT22;64680;53.800;9.988;2022-12-07T00:18:10;2.00;96.50
75994;DHT22;64680;53.800;9.988;2022-12-07T00:20:36;2.00;96.40
75994;DHT22;64680;53.800;9.988;2022-12-07T00:23:01;2.10;96.50
75994;DHT22;64680;53.800;9.988;2022-12-07T00:25:27;2.10;96.80
75994;DHT22;64680;53.800;9.988;2022-12-07T00:27:53;2.10;96.70
75994;DHT22;64680;53.800;9.988;2022-12-07T00:30:22;2.10;96.70
75994;DHT22;64680;53.800;9.988;2022-12-07T00:32:48;2.20;96.70
75994;DHT22;64680;53.800;9.988;2022-12-07T00:35:13;2.20;96.70
75994;DHT22;64680;53.800;9.988;2022-12-07T00:37:39;2.20;96.50
75994;DHT22;64680;53.800;9.988;2022-12-07T00:40:05;2.20;96.70
75994;DHT22;64680;53.800;9.988;2022-12-07T00:42:31;2.30;96.80
75994;DHT22;64680;53.800;9.988;2022-12-07T00:44:57;2.30;97.00
75994;DHT22;64680;53.800;9.988;2022-12-07T00:47:22;2.30;97.10
75994;DHT22;64680;53.800;9.988;2022-12-07T00:49:48;2.30;97.20
75994;DHT22;64680;53.800;9.988;2022-12-07T00:52:13;2.30;97.20
75994;DHT22;64680;53.800;9.988;2022-12-07T00:54:40;2.40;97.20
75994;DHT22;64680;53.800;9.988;2022-12-07T00:57:05;2.30;97.50
75994;DHT22;64680;53.800;9.988;2022-12-07T00:59:31;2.30;97.40
75994;DHT22;64680;53.800;9.988;2022-12-07T01:01:56;2.30;97.50
75994;DHT22;64680;53.800;9.988;2022-12-07T01:04:22;2.20;97.60
75994;DHT22;64680;53.800;9.988;2022-12-07T01:06:48;2.20;97.80
75994;DHT22;64680;53.800;9.988;2022-12-07T01:09:13;2.20;97.80
75994;DHT22;64680;53.800;9.988;2022-12-07T01:11:39;2.10;97.80
75994;DHT22;64680;53.800;9.988;2022-12-07T01:14:04;2.10;97.80
75994;DHT22;64680;53.800;9.988;2022-12-07T01:16:32;2.10;97.70
75994;DHT22;64680;53.800;9.988;2022-12-07T01:18:58;2.10;97.90
75994;DHT22;64680;53.800;9.988;2022-12-07T01:21:29;2.10;97.80
75994;DHT22;64680;53.800;9.988;2022-12-07T01:23:58;2.00;97.60
75994;DHT22;64680;53.800;9.988;2022-12-07T01:26:25;2.00;97.50
75994;DHT22;64680;53.800;9.988;2022-12-07T01:28:51;2.00;97.70
75994;DHT22;64680;53.800;9.988;2022-12-07T01:31:20;2.00;97.80
75994;DHT22;64680;53.800;9.988;2022-12-07T01:33:51;1.90;97.70
75994;DHT22;64680;53.800;9.988;2022-12-07T01:38:49;2.00;97.80
75994;DHT22;64680;53.800;9.988;2022-12-07T01:41:19;2.10;97.90
75994;DHT22;64680;53.800;9.988;2022-12-07T01:46:32;2.10;97.90
75994;DHT22;64680;53.800;9.988;2022-12-07T01:48:59;2.10;98.10
75994;DHT22;64680;53.800;9.988;2022-12-07T01:51:26;2.00;97.90
75994;DHT22;64680;53.800;9.988;2022-12-07T01:53:52;2.00;97.80
75994;DHT22;64680;53.800;9.988;2022-12-07T01:56:20;1.90;97.70
75994;DHT22;64680;53.800;9.988;2022-12-07T01:58:48;2.00;97.60
75994;DHT22;64680;53.800;9.988;2022-12-07T02:01:14;2.00;97.50
75994;DHT22;64680;53.800;9.988;2022-12-07T02:03:41;2.00;97.60
75994;DHT22;64680;53.800;9.988;2022-12-07T02:06:08;2.00;97.90
75994;DHT22;64680;53.800;9.988;2022-12-07T02:08:34;1.90;97.90
75994;DHT22;64680;53.800;9.988;2022-12-07T02:11:02;1.90;98.10
75994;DHT22;64680;53.800;9.988;2022-12-07T02:13:31;1.90;98.00
75994;DHT22;64680;53.800;9.988;2022-12-07T02:31:28;1.70;97.60
75994;DHT22;64680;53.800;9.988;2022-12-07T02:34:21;1.80;97.80
75994;DHT22;64680;53.800;9.988;2022-12-07T02:36:54;1.80;97.90
75994;DHT22;64680;53.800;9.988;2022-12-07T02:39:44;1.70;97.90
75994;DHT22;64680;53.800;9.988;2022-12-07T02:42:19;1.50;97.70
75994;DHT22;64680;53.800;9.988;2022-12-07T02:44:47;1.50;97.50
75994;DHT22;64680;53.800;9.988;2022-12-07T02:47:16;1.40;97.40
75994;DHT22;64680;53.800;9.988;2022-12-07T02:49:43;1.40;97.40
75994;DHT22;64680;53.800;9.988;2022-12-07T02:52:08;1.40;97.50
75994;DHT22;64680;53.800;9.988;2022-12-07T02:54:34;1.30;97.30
75994;DHT22;64680;53.800;9.988;2022-12-07T03:02:55;1.20;97.10
75994;DHT22;64680;53.800;9.988;2022-12-07T03:05:43;1.30;97.10
75994;DHT22;64680;53.800;9.988;2022-12-07T03:08:24;1.20;97.00
75994;DHT22;64680;53.800;9.988;2022-12-07T03:11:10;1.20;97.00
75994;DHT22;64680;53.800;9.988;2022-12-07T03:18:54;1.10;96.90
75994;DHT22;64680;53.800;9.988;2022-12-07T03:21:27;1.10;96.90
75994;DHT22;64680;53.800;9.988;2022-12-07T03:23:59;1.00;96.90
75994;DHT22;64680;53.800;9.988;2022-12-07T03:26:32;1.10;96.90
75994;DHT22;64680;53.800;9.988;2022-12-07T03:29:05;1.00;96.90
75994;DHT22;64680;53.800;9.988;2022-12-07T03:31:34;1.00;96.90
75994;DHT22;64680;53.800;9.988;2022-12-07T03:34:09;0.90;96.80
75994;DHT22;64680;53.800;9.988;2022-12-07T03:39:56;0.90;96.80
75994;DHT22;64680;53.800;9.988;2022-12-07T03:42:04;0.90;96.70
75994;DHT22;64680;53.800;9.988;2022-12-07T03:44:31;0.90;96.70
75994;DHT22;64680;53.800;9.988;2022-12-07T03:50:07;0.90;96.70
75994;DHT22;64680;53.800;9.988;2022-12-07T03:52:47;0.90;96.60
75994;DHT22;64680;53.800;9.988;2022-12-07T03:55:21;0.90;96.60
75994;DHT22;64680;53.800;9.988;2022-12-07T03:57:50;0.90;96.60
75994;DHT22;64680;53.800;9.988;2022-12-07T04:00:18;0.90;96.80
75994;DHT22;64680;53.800;9.988;2022-12-07T04:02:44;0.80;96.60
75994;DHT22;64680;53.800;9.988;2022-12-07T04:05:10;0.80;96.60
75994;DHT22;64680;53.800;9.988;2022-12-07T04:07:36;0.80;97.50
75994;DHT22;64680;53.800;9.988;2022-12-07T04:10:02;0.70;96.70
75994;DHT22;64680;53.800;9.988;2022-12-07T04:12:28;0.70;96.60
75994;DHT22;64680;53.800;9.988;2022-12-07T04:14:53;0.60;96.50
75994;DHT22;64680;53.800;9.988;2022-12-07T04:17:19;0.60;96.60
75994;DHT22;64680;53.800;9.988;2022-12-07T04:19:44;0.60;96.40
75994;DHT22;64680;53.800;9.988;2022-12-07T04:22:10;0.60;96.60
75994;DHT22;64680;53.800;9.988;2022-12-07T04:24:36;0.60;96.70
75994;DHT22;64680;53.800;9.988;2022-12-07T04:27:01;0.60;96.60
75994;DHT22;64680;53.800;9.988;2022-12-07T04:29:27;0.50;96.70
75994;DHT22;64680;53.800;9.988;2022-12-07T04:31:53;0.50;96.60
75994;DHT22;64680;53.800;9.988;2022-12-07T04:34:19;0.50;96.50
75994;DHT22;64680;53.800;9.988;2022-12-07T04:36:46;0.40;96.40
75994;DHT22;64680;53.800;9.988;2022-12-07T04:39:21;0.40;96.30
75994;DHT22;64680;53.800;9.988;2022-12-07T04:41:48;0.40;96.30
75994;DHT22;64680;53.800;9.988;2022-12-07T04:44:14;0.30;96.40
75994;DHT22;64680;53.800;9.988;2022-12-07T04:46:40;0.30;96.30
75994;DHT22;64680;53.800;9.988;2022-12-07T04:49:06;0.20;96.20
75994;DHT22;64680;53.800;9.988;2022-12-07T04:51:32;0.20;95.90
75994;DHT22;64680;53.800;9.988;2022-12-07T04:53:58;0.20;96.10
75994;DHT22;64680;53.800;9.988;2022-12-07T04:56:24;0.20;96.90
75994;DHT22;64680;53.800;9.988;2022-12-07T04:58:51;0.20;95.90
75994;DHT22;64680;53.800;9.988;2022-12-07T05:01:17;0.20;96.00
75994;DHT22;64680;53.800;9.988;2022-12-07T05:03:43;0.10;96.20
75994;DHT22;64680;53.800;9.988;2022-12-07T05:06:10;0.10;96.20
75994;DHT22;64680;53.800;9.988;2022-12-07T05:08:36;0.00;96.30
75994;DHT22;64680;53.800;9.988;2022-12-07T05:11:03;-0.10;96.30
75994;DHT22;64680;53.800;9.988;2022-12-07T05:13:29;-0.10;96.20
75994;DHT22;64680;53.800;9.988;2022-12-07T05:15:55;-0.10;96.20
75994;DHT22;64680;53.800;9.988;2022-12-07T05:18:20;-0.10;96.20
75994;DHT22;64680;53.800;9.988;2022-12-07T05:20:46;-0.20;96.20
75994;DHT22;64680;53.800;9.988;2022-12-07T05:23:12;-0.30;96.10
75994;DHT22;64680;53.800;9.988;2022-12-07T05:25:37;-0.20;95.80
75994;DHT22;64680;53.800;9.988;2022-12-07T05:28:04;-0.20;95.90
75994;DHT22;64680;53.800;9.988;2022-12-07T05:30:30;-0.10;96.00
75994;DHT22;64680;53.800;9.988;2022-12-07T05:32:55;-0.20;96.00
75994;DHT22;64680;53.800;9.988;2022-12-07T05:35:21;-0.20;96.00
75994;DHT22;64680;53.800;9.988;2022-12-07T05:37:47;-0.20;96.00
75994;DHT22;64680;53.800;9.988;2022-12-07T05:40:13;-0.30;96.10
75994;DHT22;64680;53.800;9.988;2022-12-07T05:42:39;-0.30;96.00
75994;DHT22;64680;53.800;9.988;2022-12-07T05:45:06;-0.30;95.90
75994;DHT22;64680;53.800;9.988;2022-12-07T05:47:32;-0.30;95.90
75994;DHT22;64680;53.800;9.988;2022-12-07T05:49:58;-0.30;96.10
75994;DHT22;64680;53.800;9.988;2022-12-07T05:52:23;-0.30;96.10
75994;DHT22;64680;53.800;9.988;2022-12-07T05:54:49;-0.30;96.10
75994;DHT22;64680;53.800;9.988;2022-12-07T05:57:15;-0.30;96.00
75994;DHT22;64680;53.800;9.988;2022-12-07T05:59:41;-0.30;96.20
75994;DHT22;64680;53.800;9.988;2022-12-07T06:02:09;-0.30;96.40
75994;DHT22;64680;53.800;9.988;2022-12-07T06:04:38;-0.40;96.10
75994;DHT22;64680;53.800;9.988;2022-12-07T06:07:05;-0.30;96.20
75994;DHT22;64680;53.800;9.988;2022-12-07T06:09:31;-0.30;96.30
75994;DHT22;64680;53.800;9.988;2022-12-07T06:11:58;-0.30;96.20
75994;DHT22;64680;53.800;9.988;2022-12-07T06:14:42;-0.30;96.10
75994;DHT22;64680;53.800;9.988;2022-12-07T06:17:08;-0.40;96.00
75994;DHT22;64680;53.800;9.988;2022-12-07T06:19:34;-0.30;96.00
75994;DHT22;64680;53.800;9.988;2022-12-07T06:22:00;-0.40;95.90
75994;DHT22;64680;53.800;9.988;2022-12-07T06:24:26;-0.30;95.60
75994;DHT22;64680;53.800;9.988;2022-12-07T06:26:52;-0.20;95.80
75994;DHT22;64680;53.800;9.988;2022-12-07T06:29:18;-0.10;95.90
75994;DHT22;64680;53.800;9.988;2022-12-07T06:31:44;-0.10;96.30
75994;DHT22;64680;53.800;9.988;2022-12-07T06:34:15;-0.20;96.10
75994;DHT22;64680;53.800;9.988;2022-12-07T06:36:41;-0.10;96.40
75994;DHT22;64680;53.800;9.988;2022-12-07T06:39:07;-0.20;96.20
75994;DHT22;64680;53.800;9.988;2022-12-07T06:41:38;-0.20;96.20
75994;DHT22;64680;53.800;9.988;2022-12-07T06:44:05;-0.20;96.20
75994;DHT22;64680;53.800;9.988;2022-12-07T06:46:31;-0.20;96.20
75994;DHT22;64680;53.800;9.988;2022-12-07T06:48:56;-0.30;96.10
75994;DHT22;64680;53.800;9.988;2022-12-07T06:51:22;-0.30;95.90
75994;DHT22;64680;53.800;9.988;2022-12-07T06:53:48;-0.30;95.90
75994;DHT22;64680;53.800;9.988;2022-12-07T06:56:14;-0.20;95.80
75994;DHT22;64680;53.800;9.988;2022-12-07T06:58:40;-0.20;95.90
75994;DHT22;64680;53.800;9.988;2022-12-07T07:01:14;-0.10;96.10
75994;DHT22;64680;53.800;9.988;2022-12-07T07:03:40;-0.20;95.90
75994;DHT22;64680;53.800;9.988;2022-12-07T07:06:06;-0.10;96.00
75994;DHT22;64680;53.800;9.988;2022-12-07T07:08:34;-0.10;96.10
75994;DHT22;64680;53.800;9.988;2022-12-07T07:10:59;-0.10;96.00
75994;DHT22;64680;53.800;9.988;2022-12-07T07:13:26;-0.10;96.80
75994;DHT22;64680;53.800;9.988;2022-12-07T07:15:52;-0.10;96.00
75994;DHT22;64680;53.800;9.988;2022-12-07T07:18:18;0.00;95.90
75994;DHT22;64680;53.800;9.988;2022-12-07T07:20:43;0.00;96.20
75994;DHT22;64680;53.800;9.988;2022-12-07T07:23:09;0.00;96.20
75994;DHT22;64680;53.800;9.988;2022-12-07T07:25:35;0.00;96.20
75994;DHT22;64680;53.800;9.988;2022-12-07T07:28:01;0.00;96.20
75994;DHT22;64680;53.800;9.988;2022-12-07T07:30:26;0.00;96.10
75994;DHT22;64680;53.800;9.988;2022-12-07T07:32:57;0.00;96.00
75994;DHT22;64680;53.800;9.988;2022-12-07T07:35:23;0.10;96.10
75994;DHT22;64680;53.800;9.988;2022-12-07T07:37:49;0.10;96.00
75994;DHT22;64680;53.800;9.988;2022-12-07T07:40:15;0.10;96.90
75994;DHT22;64680;53.800;9.988;2022-12-07T07:42:40;0.10;96.00
75994;DHT22;64680;53.800;9.988;2022-12-07T07:45:06;0.10;95.90
75994;DHT22;64680;53.800;9.988;2022-12-07T07:47:32;0.20;96.00
75994;DHT22;64680;53.800;9.988;2022-12-07T07:49:58;0.20;96.00
75994;DHT22;64680;53.800;9.988;2022-12-07T07:52:23;0.30;96.60
75994;DHT22;64680;53.800;9.988;2022-12-07T07:54:49;0.40;96.50
75994;DHT22;64680;53.800;9.988;2022-12-07T07:57:16;0.40;96.50
75994;DHT22;64680;53.800;9.988;2022-12-07T07:59:42;0.40;96.40
75994;DHT22;64680;53.800;9.988;2022-12-07T08:02:14;0.50;96.70
75994;DHT22;64680;53.800;9.988;2022-12-07T08:04:40;0.50;96.70
75994;DHT22;64680;53.800;9.988;2022-12-07T08:07:05;0.50;96.80
75994;DHT22;64680;53.800;9.988;2022-12-07T08:09:31;0.60;97.00
75994;DHT22;64680;53.800;9.988;2022-12-07T08:11:57;0.50;97.00
75994;DHT22;64680;53.800;9.988;2022-12-07T08:14:23;0.60;96.90
75994;DHT22;64680;53.800;9.988;2022-12-07T08:16:49;0.60;96.90
75994;DHT22;64680;53.800;9.988;2022-12-07T08:19:15;0.60;96.90
75994;DHT22;64680;53.800;9.988;2022-12-07T08:21:40;0.70;97.10
75994;DHT22;64680;53.800;9.988;2022-12-07T08:24:06;0.70;97.20
75994;DHT22;64680;53.800;9.988;2022-12-07T08:26:31;0.70;97.20
75994;DHT22;64680;53.800;9.988;2022-12-07T08:28:57;0.80;97.20
75994;DHT22;64680;53.800;9.988;2022-12-07T08:31:22;0.70;97.20
75994;DHT22;64680;53.800;9.988;2022-12-07T08:33:48;0.80;97.30
75994;DHT22;64680;53.800;9.988;2022-12-07T08:36:15;0.90;97.60
75994;DHT22;64680;53.800;9.988;2022-12-07T08:38:41;0.80;97.40
75994;DHT22;64680;53.800;9.988;2022-12-07T08:41:07;0.90;97.40
75994;DHT22;64680;53.800;9.988;2022-12-07T08:43:33;0.90;97.40
75994;DHT22;64680;53.800;9.988;2022-12-07T08:48:56;1.00;97.50
75994;DHT22;64680;53.800;9.988;2022-12-07T08:51:23;1.00;97.50
75994;DHT22;64680;53.800;9.988;2022-12-07T08:53:49;1.00;97.50
75994;DHT22;64680;53.800;9.988;2022-12-07T08:56:16;1.10;97.70
75994;DHT22;64680;53.800;9.988;2022-12-07T08:58:42;1.20;97.70
75994;DHT22;64680;53.800;9.988;2022-12-07T09:01:08;1.20;98.20
75994;DHT22;64680;53.800;9.988;2022-12-07T09:03:34;1.30;97.80
75994;DHT22;64680;53.800;9.988;2022-12-07T09:05:59;1.30;97.60
75994;DHT22;64680;53.800;9.988;2022-12-07T09:08:33;1.40;97.70
75994;DHT22;64680;53.800;9.988;2022-12-07T09:10:59;1.40;97.80
75994;DHT22;64680;53.800;9.988;2022-12-07T09:13:24;1.40;97.80
75994;DHT22;64680;53.800;9.988;2022-12-07T09:15:50;1.40;98.50
75994;DHT22;64680;53.800;9.988;2022-12-07T09:18:15;1.40;97.80
75994;DHT22;64680;53.800;9.988;2022-12-07T09:20:41;1.50;97.30
75994;DHT22;64680;53.800;9.988;2022-12-07T09:23:07;1.60;96.80
75994;DHT22;64680;53.800;9.988;2022-12-07T09:25:33;1.60;96.30
75994;DHT22;64680;53.800;9.988;2022-12-07T09:27:59;1.60;96.60
75994;DHT22;64680;53.800;9.988;2022-12-07T09:30:25;1.60;96.70
75994;DHT22;64680;53.800;9.988;2022-12-07T09:32:53;1.60;97.00
75994;DHT22;64680;53.800;9.988;2022-12-07T09:35:19;1.70;97.50
75994;DHT22;64680;53.800;9.988;2022-12-07T09:37:45;1.70;97.50
75994;DHT22;64680;53.800;9.988;2022-12-07T09:40:11;1.70;97.60
75994;DHT22;64680;53.800;9.988;2022-12-07T09:42:39;1.70;97.70
75994;DHT22;64680;53.800;9.988;2022-12-07T09:45:15;1.80;97.60
75994;DHT22;64680;53.800;9.988;2022-12-07T09:47:49;1.80;97.30
75994;DHT22;64680;53.800;9.988;2022-12-07T09:50:21;1.90;98.20
75994;DHT22;64680;53.800;9.988;2022-12-07T09:52:49;2.00;96.40
75994;DHT22;64680;53.800;9.988;2022-12-07T09:55:19;2.00;96.50
75994;DHT22;64680;53.800;9.988;2022-12-07T09:57:48;2.10;96.10
75994;DHT22;64680;53.800;9.988;2022-12-07T10:00:19;2.10;97.10
75994;DHT22;64680;53.800;9.988;2022-12-07T10:05:38;2.10;97.60
75994;DHT22;64680;53.800;9.988;2022-12-07T10:08:08;2.20;97.50
75994;DHT22;64680;53.800;9.988;2022-12-07T10:10:35;2.20;97.50
75994;DHT22;64680;53.800;9.988;2022-12-07T10:13:12;2.30;97.10
75994;DHT22;64680;53.800;9.988;2022-12-07T10:15:55;2.40;97.10
75994;DHT22;64680;53.800;9.988;2022-12-07T10:21:10;2.30;96.70
75994;DHT22;64680;53.800;9.988;2022-12-07T10:23:37;2.40;96.20
75994;DHT22;64680;53.800;9.988;2022-12-07T10:29:22;2.40;96.00
75994;DHT22;64680;53.800;9.988;2022-12-07T10:31:55;2.30;96.30
75994;DHT22;64680;53.800;9.988;2022-12-07T10:36:49;2.40;95.30
75994;DHT22;64680;53.800;9.988;2022-12-07T10:39:18;2.50;96.50
75994;DHT22;64680;53.800;9.988;2022-12-07T10:42:01;2.50;96.30
75994;DHT22;64680;53.800;9.988;2022-12-07T10:44:30;2.50;96.70
75994;DHT22;64680;53.800;9.988;2022-12-07T10:47:33;2.60;96.30
75994;DHT22;64680;53.800;9.988;2022-12-07T11:11:38;3.00;93.90
75994;DHT22;64680;53.800;9.988;2022-12-07T11:20:20;3.20;92.70
75994;DHT22;64680;53.800;9.988;2022-12-07T11:23:15;3.20;91.90
75994;DHT22;64680;53.800;9.988;2022-12-07T11:25:56;3.20;87.90
75994;DHT22;64680;53.800;9.988;2022-12-07T11:28:32;3.20;88.90
75994;DHT22;64680;53.800;9.988;2022-12-07T11:31:05;3.10;89.00
75994;DHT22;64680;53.800;9.988;2022-12-07T11:36:33;3.10;89.30
75994;DHT22;64680;53.800;9.988;2022-12-07T11:39:04;3.20;87.80
75994;DHT22;64680;53.800;9.988;2022-12-07T11:41:34;3.10;86.40
75994;DHT22;64680;53.800;9.988;2022-12-07T11:44:07;3.10;83.50
75994;DHT22;64680;53.800;9.988;2022-12-07T11:46:49;3.10;83.40
75994;DHT22;64680;53.800;9.988;2022-12-07T11:49:43;3.00;83.60
75994;DHT22;64680;53.800;9.988;2022-12-07T11:52:26;3.00;84.60
75994;DHT22;64680;53.800;9.988;2022-12-07T11:54:53;3.00;82.40
75994;DHT22;64680;53.800;9.988;2022-12-07T11:57:37;3.10;82.60
75994;DHT22;64680;53.800;9.988;2022-12-07T12:00:08;3.10;84.20
75994;DHT22;64680;53.800;9.988;2022-12-07T12:05:18;3.10;81.70
75994;DHT22;64680;53.800;9.988;2022-12-07T12:07:50;3.10;82.20
75994;DHT22;64680;53.800;9.988;2022-12-07T12:10:23;3.20;80.90
75994;DHT22;64680;53.800;9.988;2022-12-07T12:15:51;3.20;76.60
75994;DHT22;64680;53.800;9.988;2022-12-07T12:18:46;3.20;76.20
75994;DHT22;64680;53.800;9.988;2022-12-07T12:21:17;3.30;76.40
75994;DHT22;64680;53.800;9.988;2022-12-07T12:23:50;3.30;74.50
75994;DHT22;64680;53.800;9.988;2022-12-07T12:26:26;3.40;72.50
75994;DHT22;64680;53.800;9.988;2022-12-07T12:29:13;3.40;74.70
75994;DHT22;64680;53.800;9.988;2022-12-07T12:31:47;3.50;69.10
75994;DHT22;64680;53.800;9.988;2022-12-07T12:34:57;3.40;74.40
75994;DHT22;64680;53.800;9.988;2022-12-07T12:42:43;3.20;69.20
75994;DHT22;64680;53.800;9.988;2022-12-07T12:45:31;3.10;66.50
75994;DHT22;64680;53.800;9.988;2022-12-07T12:48:01;3.10;72.30
75994;DHT22;64680;53.800;9.988;2022-12-07T12:53:02;3.20;68.50
75994;DHT22;64680;53.800;9.988;2022-12-07T12:58:29;3.20;64.80
75994;DHT22;64680;53.800;9.988;2022-12-07T13:03:53;3.10;62.40
75994;DHT22;64680;53.800;9.988;2022-12-07T13:09:01;3.20;60.30
75994;DHT22;64680;53.800;9.988;2022-12-07T13:11:41;3.10;64.50
75994;DHT22;64680;53.800;9.988;2022-12-07T13:14:52;3.10;64.80
75994;DHT22;64680;53.800;9.988;2022-12-07T13:20:00;3.00;63.20
75994;DHT22;64680;53.800;9.988;2022-12-07T13:25:30;2.80;61.70
75994;DHT22;64680;53.800;9.988;2022-12-07T13:28:16;2.70;60.20
75994;DHT22;64680;53.800;9.988;2022-12-07T13:30:52;2.60;63.40
75994;DHT22;64680;53.800;9.988;2022-12-07T13:33:19;2.70;63.20
75994;DHT22;64680;53.800;9.988;2022-12-07T13:35:45;2.60;65.80
75994;DHT22;64680;53.800;9.988;2022-12-07T13:38:37;2.60;63.50
75994;DHT22;64680;53.800;9.988;2022-12-07T13:43:44;2.50;62.80
75994;DHT22;64680;53.800;9.988;2022-12-07T13:46:11;2.40;63.10
75994;DHT22;64680;53.800;9.988;2022-12-07T13:48:52;2.30;64.00
75994;DHT22;64680;53.800;9.988;2022-12-07T13:51:23;2.30;64.20
75994;DHT22;64680;53.800;9.988;2022-12-07T13:53:55;2.40;65.40
75994;DHT22;64680;53.800;9.988;2022-12-07T13:56:23;2.30;67.50
75994;DHT22;64680;53.800;9.988;2022-12-07T13:58:51;2.30;64.20
75994;DHT22;64680;53.800;9.988;2022-12-07T14:01:17;2.20;65.30
75994;DHT22;64680;53.800;9.988;2022-12-07T14:03:43;2.20;64.20
75994;DHT22;64680;53.800;9.988;2022-12-07T14:06:20;2.20;64.60
75994;DHT22;64680;53.800;9.988;2022-12-07T14:08:47;2.10;64.90
75994;DHT22;64680;53.800;9.988;2022-12-07T14:11:17;2.10;64.20
75994;DHT22;64680;53.800;9.988;2022-12-07T14:13:51;2.00;66.20
75994;DHT22;64680;53.800;9.988;2022-12-07T14:16:34;2.00;64.90
75994;DHT22;64680;53.800;9.988;2022-12-07T14:19:06;2.00;65.60
75994;DHT22;64680;53.800;9.988;2022-12-07T14:22:15;2.00;64.50
75994;DHT22;64680;53.800;9.988;2022-12-07T14:24:43;1.90;66.10
75994;DHT22;64680;53.800;9.988;2022-12-07T14:27:17;1.80;63.80
75994;DHT22;64680;53.800;9.988;2022-12-07T14:29:43;1.90;66.70
75994;DHT22;64680;53.800;9.988;2022-12-07T14:35:17;1.80;67.10
75994;DHT22;64680;53.800;9.988;2022-12-07T14:37:45;1.80;67.60
75994;DHT22;64680;53.800;9.988;2022-12-07T14:40:15;1.70;65.10
75994;DHT22;64680;53.800;9.988;2022-12-07T14:42:42;1.70;65.20
75994;DHT22;64680;53.800;9.988;2022-12-07T14:45:18;1.70;66.20
75994;DHT22;64680;53.800;9.988;2022-12-07T14:47:45;1.60;67.00
75994;DHT22;64680;53.800;9.988;2022-12-07T14:50:13;1.50;66.00
75994;DHT22;64680;53.800;9.988;2022-12-07T14:52:39;1.50;67.60
75994;DHT22;64680;53.800;9.988;2022-12-07T14:55:13;1.40;65.90
75994;DHT22;64680;53.800;9.988;2022-12-07T14:57:39;1.40;66.00
75994;DHT22;64680;53.800;9.988;2022-12-07T15:00:05;1.30;68.50
75994;DHT22;64680;53.800;9.988;2022-12-07T15:02:31;1.20;69.60
75994;DHT22;64680;53.800;9.988;2022-12-07T15:04:57;1.20;67.80
75994;DHT22;64680;53.800;9.988;2022-12-07T15:07:22;1.00;69.50
75994;DHT22;64680;53.800;9.988;2022-12-07T15:09:49;0.90;69.50
75994;DHT22;64680;53.800;9.988;2022-12-07T15:12:14;0.90;69.60
75994;DHT22;64680;53.800;9.988;2022-12-07T15:14:40;0.80;70.20
75994;DHT22;64680;53.800;9.988;2022-12-07T15:17:06;0.80;72.30
75994;DHT22;64680;53.800;9.988;2022-12-07T15:19:34;0.60;71.40
75994;DHT22;64680;53.800;9.988;2022-12-07T15:22:00;0.60;73.10
75994;DHT22;64680;53.800;9.988;2022-12-07T15:24:26;0.50;73.50
75994;DHT22;64680;53.800;9.988;2022-12-07T15:26:51;0.40;74.70
75994;DHT22;64680;53.800;9.988;2022-12-07T15:29:17;0.40;73.50
75994;DHT22;64680;53.800;9.988;2022-12-07T15:31:43;0.40;74.00
75994;DHT22;64680;53.800;9.988;2022-12-07T15:34:09;0.30;73.80
75994;DHT22;64680;53.800;9.988;2022-12-07T15:36:35;0.30;74.10
75994;DHT22;64680;53.800;9.988;2022-12-07T15:39:00;0.30;75.30
75994;DHT22;64680;53.800;9.988;2022-12-07T15:41:27;0.20;74.50
75994;DHT22;64680;53.800;9.988;2022-12-07T15:43:52;0.20;74.90
75994;DHT22;64680;53.800;9.988;2022-12-07T15:46:39;0.10;75.70
75994;DHT22;64680;53.800;9.988;2022-12-07T15:49:10;0.20;74.30
75994;DHT22;64680;53.800;9.988;2022-12-07T15:51:36;0.10;76.00
75994;DHT22;64680;53.800;9.988;2022-12-07T15:54:02;0.00;75.70
75994;DHT22;64680;53.800;9.988;2022-12-07T15:56:27;0.00;76.70
75994;DHT22;64680;53.800;9.988;2022-12-07T15:58:53;-0.10;77.10
75994;DHT22;64680;53.800;9.988;2022-12-07T16:01:19;-0.20;78.10
75994;DHT22;64680;53.800;9.988;2022-12-07T16:03:45;-0.20;78.00
75994;DHT22;64680;53.800;9.988;2022-12-07T16:06:14;-0.20;77.60
75994;DHT22;64680;53.800;9.988;2022-12-07T16:08:46;-0.30;78.60
75994;DHT22;64680;53.800;9.988;2022-12-07T16:11:13;-0.30;79.90
75994;DHT22;64680;53.800;9.988;2022-12-07T16:13:38;-0.40;80.10
75994;DHT22;64680;53.800;9.988;2022-12-07T16:16:06;-0.50;80.80
75994;DHT22;64680;53.800;9.988;2022-12-07T16:18:32;-0.50;80.80
75994;DHT22;64680;53.800;9.988;2022-12-07T16:20:58;-0.60;81.20
75994;DHT22;64680;53.800;9.988;2022-12-07T16:23:24;-0.70;81.80
75994;DHT22;64680;53.800;9.988;2022-12-07T16:25:49;-0.70;82.10
75994;DHT22;64680;53.800;9.988;2022-12-07T16:28:15;-0.80;82.50
75994;DHT22;64680;53.800;9.988;2022-12-07T16:30:41;-0.80;83.40
75994;DHT22;64680;53.800;9.988;2022-12-07T16:33:06;-0.80;83.60
75994;DHT22;64680;53.800;9.988;2022-12-07T16:35:32;-0.90;83.80
75994;DHT22;64680;53.800;9.988;2022-12-07T16:37:58;-0.90;84.50
75994;DHT22;64680;53.800;9.988;2022-12-07T16:40:23;-0.90;84.90
75994;DHT22;64680;53.800;9.988;2022-12-07T16:42:49;-0.90;84.70
75994;DHT22;64680;53.800;9.988;2022-12-07T16:45:15;-0.90;84.90
75994;DHT22;64680;53.800;9.988;2022-12-07T16:47:41;-0.90;85.00
75994;DHT22;64680;53.800;9.988;2022-12-07T16:50:07;-0.90;84.60
75994;DHT22;64680;53.800;9.988;2022-12-07T16:52:33;-0.80;84.80
75994;DHT22;64680;53.800;9.988;2022-12-07T16:54:58;-0.80;84.70
75994;DHT22;64680;53.800;9.988;2022-12-07T16:57:24;-0.80;84.20
75994;DHT22;64680;53.800;9.988;2022-12-07T16:59:51;-0.80;83.90
75994;DHT22;64680;53.800;9.988;2022-12-07T17:02:17;-0.70;84.10
75994;DHT22;64680;53.800;9.988;2022-12-07T17:04:43;-0.70;84.20
75994;DHT22;64680;53.800;9.988;2022-12-07T17:07:08;-0.70;83.40
75994;DHT22;64680;53.800;9.988;2022-12-07T17:09:34;-0.60;82.00
75994;DHT22;64680;53.800;9.988;2022-12-07T17:12:00;-0.50;81.70
75994;DHT22;64680;53.800;9.988;2022-12-07T17:14:26;-0.50;81.60
75994;DHT22;64680;53.800;9.988;2022-12-07T17:17:10;-0.50;81.00
75994;DHT22;64680;53.800;9.988;2022-12-07T17:19:36;-0.50;81.50
75994;DHT22;64680;53.800;9.988;2022-12-07T17:22:02;-0.50;80.80
75994;DHT22;64680;53.800;9.988;2022-12-07T17:24:27;-0.40;80.40
75994;DHT22;64680;53.800;9.988;2022-12-07T17:26:53;-0.50;81.60
75994;DHT22;64680;53.800;9.988;2022-12-07T17:29:19;-0.50;81.40
75994;DHT22;64680;53.800;9.988;2022-12-07T17:31:46;-0.50;81.30
75994;DHT22;64680;53.800;9.988;2022-12-07T17:34:13;-0.50;81.70
75994;DHT22;64680;53.800;9.988;2022-12-07T17:36:39;-0.50;81.30
75994;DHT22;64680;53.800;9.988;2022-12-07T17:39:09;-0.50;81.00
75994;DHT22;64680;53.800;9.988;2022-12-07T17:41:36;-0.40;81.20
75994;DHT22;64680;53.800;9.988;2022-12-07T17:44:20;-0.40;81.30
75994;DHT22;64680;53.800;9.988;2022-12-07T17:46:49;-0.40;80.70
75994;DHT22;64680;53.800;9.988;2022-12-07T17:49:15;-0.40;80.40